Time;durP1;ratioP1;P1;durP2;ratioP2;P2;SDS_P1;SDS_P2;PMS_P1;PMS_P2;Temp;Humidity;BMP_temperature;BMP_pressure;BME280_temperature;BME280_humidity;BME280_pressure;Samples;Min_cycle;Max_cycle;Signal;HPM_P1;HPM_P2
2022/10/12 00:00:07;;;;;;;19.77;11.13;;;13.10;99.90;;;;;;4999181;28;20037;-73
2022/10/12 00:02:33;;;;;;;19.70;9.40;;;13.00;99.90;;;;;;4999043;28;20038;-72
2022/10/12 00:04:58;;;;;;;15.35;9.95;;;13.00;99.90;;;;;;4999075;28;20033;-72
2022/10/12 00:07:24;;;;;;;14.55;9.32;;;13.00;99.90;;;;;;5016370;28;20033;-73
2022/10/12 00:09:49;;;;;;;14.57;10.38;;;13.00;99.90;;;;;;5016365;28;20026;-73
2022/10/12 00:12:15;;;;;;;15.02;9.77;;;13.00;99.90;;;;;;4999016;28;20504;-72
2022/10/12 00:14:41;;;;;;;17.73;10.40;;;13.00;99.90;;;;;;5016999;28;20037;-73
2022/10/12 00:17:06;;;;;;;15.77;9.80;;;13.00;99.90;;;;;;4998690;28;20120;-73
2022/10/12 00:19:32;;;;;;;16.67;11.70;;;13.00;99.90;;;;;;4998815;28;20026;-73
2022/10/12 00:21:58;;;;;;;15.55;10.27;;;12.90;99.90;;;;;;5016362;28;20045;-73
2022/10/12 00:24:24;;;;;;;19.20;9.95;;;12.90;99.90;;;;;;4998805;28;20026;-73
2022/10/12 00:26:50;;;;;;;17.73;10.98;;;12.90;99.90;;;;;;5016345;28;20022;-73
2022/10/12 00:29:16;;;;;;;14.02;9.73;;;12.90;99.90;;;;;;5016243;28;20029;-73
2022/10/12 00:31:41;;;;;;;17.75;10.27;;;12.80;99.90;;;;;;5015927;28;20033;-72
2022/10/12 00:34:08;;;;;;;18.15;10.88;;;12.80;99.90;;;;;;4998603;28;20033;-73
2022/10/12 00:36:34;;;;;;;14.85;9.63;;;12.80;99.90;;;;;;4998655;28;20030;-73
2022/10/12 00:39:01;;;;;;;14.82;10.75;;;12.80;99.90;;;;;;4998485;28;20029;-73
2022/10/12 00:41:33;;;;;;;17.60;9.45;;;12.80;99.90;;;;;;5015690;28;20037;-72
2022/10/12 00:43:59;;;;;;;14.85;10.20;;;12.70;99.90;;;;;;5015782;28;20049;-73
2022/10/12 00:46:44;;;;;;;20.30;10.65;;;12.70;99.90;;;;;;4998964;28;20442;-73
2022/10/12 00:49:24;;;;;;;14.15;10.82;;;12.70;99.90;;;;;;5015932;28;20034;-73
2022/10/12 00:51:52;;;;;;;;;;;12.60;99.90;;;;;;5016351;28;20047;-73
2022/10/12 00:54:23;;;;;;;15.68;10.35;;;12.60;99.90;;;;;;5015884;28;19905;-72
2022/10/12 00:56:52;;;;;;;19.23;10.90;;;12.60;99.90;;;;;;5015547;28;20061;-72
2022/10/12 00:59:26;;;;;;;15.25;10.70;;;12.50;99.90;;;;;;5015648;28;20101;-73
2022/10/12 01:01:52;;;;;;;12.57;9.93;;;12.50;99.90;;;;;;5015864;28;20467;-72
2022/10/12 01:04:18;;;;;;;15.80;10.40;;;12.40;99.90;;;;;;5015606;28;20030;-72
2022/10/12 01:06:43;;;;;;;18.20;9.93;;;12.40;99.90;;;;;;4997960;28;20022;-73
2022/10/12 01:09:09;;;;;;;25.13;11.60;;;12.30;99.90;;;;;;5015755;28;20038;-72
2022/10/12 01:11:34;;;;;;;16.20;10.90;;;12.30;99.90;;;;;;4997565;28;20030;-73
2022/10/12 01:14:01;;;;;;;18.63;10.98;;;12.20;99.90;;;;;;5015736;28;20069;-72
2022/10/12 01:16:32;;;;;;;16.63;11.68;;;12.20;99.90;;;;;;5014897;28;20030;-73
2022/10/12 01:19:10;;;;;;;17.13;11.43;;;12.10;99.90;;;;;;5015538;28;20030;-73
2022/10/12 01:21:46;;;;;;;19.55;11.52;;;12.10;99.90;;;;;;5015257;28;20037;-73
2022/10/12 01:24:20;;;;;;;19.52;12.75;;;12.10;99.90;;;;;;5015189;28;20065;-73
2022/10/12 01:27:19;;;;;;;20.45;11.30;;;12.00;99.90;;;;;;4997677;28;20531;-74
2022/10/12 01:29:57;;;;;;;19.48;11.35;;;12.00;99.90;;;;;;4969410;28;20112;-72
2022/10/12 01:32:29;;;;;;;19.92;10.77;;;12.00;99.90;;;;;;5014810;28;20051;-73
2022/10/12 01:35:24;;;;;;;19.23;11.65;;;12.00;99.90;;;;;;5014825;28;20521;-73
2022/10/12 01:38:11;;;;;;;14.95;10.32;;;12.00;99.90;;;;;;4997881;28;20033;-73
2022/10/12 01:40:43;;;;;;;19.00;11.45;;;12.00;99.90;;;;;;4997428;28;20046;-73
2022/10/12 01:43:08;;;;;;;20.17;11.07;;;12.00;99.90;;;;;;4997417;28;20441;-73
2022/10/12 01:45:34;;;;;;;20.98;11.00;;;12.00;99.90;;;;;;5014939;28;20093;-73
2022/10/12 01:48:01;;;;;;;16.92;11.05;;;12.00;99.90;;;;;;4997594;28;20120;-73
2022/10/12 01:50:50;;;;;;;16.35;11.60;;;12.00;99.90;;;;;;5014786;28;20066;-73
2022/10/12 01:53:48;;;;;;;17.58;11.55;;;12.00;99.90;;;;;;5015230;28;20520;-72
2022/10/12 01:56:39;;;;;;;16.25;12.30;;;12.00;99.90;;;;;;4978811;28;20064;-73
2022/10/12 01:59:12;;;;;;;20.70;11.57;;;12.00;99.90;;;;;;5014559;28;20109;-73
2022/10/12 02:01:38;;;;;;;18.00;10.95;;;12.00;99.90;;;;;;5014558;28;20025;-73
2022/10/12 02:04:20;;;;;;;19.15;11.77;;;12.00;99.90;;;;;;4996919;28;20033;-73
2022/10/12 02:06:58;;;;;;;20.05;12.60;;;12.00;99.90;;;;;;4997272;28;20422;-73
2022/10/12 02:09:30;;;;;;;17.15;11.52;;;12.00;99.90;;;;;;5014205;28;20060;-73
2022/10/12 02:12:03;;;;;;;21.40;11.15;;;11.90;99.90;;;;;;5014907;28;20034;-73
2022/10/12 02:14:34;;;;;;;18.05;12.02;;;11.90;99.90;;;;;;5014969;28;20040;-73
2022/10/12 02:17:03;;;;;;;19.63;10.82;;;11.90;99.90;;;;;;4996813;28;20057;-73
2022/10/12 02:19:38;;;;;;;19.42;11.23;;;11.90;99.90;;;;;;5014317;28;20073;-73
2022/10/12 02:22:06;;;;;;;18.95;11.93;;;11.80;99.90;;;;;;4996780;28;20033;-73
2022/10/12 02:24:35;;;;;;;15.47;11.27;;;11.90;99.90;;;;;;5014494;28;20026;-73
2022/10/12 02:27:02;;;;;;;16.65;10.52;;;11.80;99.90;;;;;;4997253;28;20030;-73
2022/10/12 02:29:36;;;;;;;17.30;10.68;;;11.80;99.90;;;;;;4996575;28;20429;-73
2022/10/12 02:32:04;;;;;;;21.65;11.88;;;11.80;99.90;;;;;;4996700;28;20029;-73
2022/10/12 02:34:47;;;;;;;19.02;12.65;;;11.80;99.90;;;;;;5013533;28;20104;-73
2022/10/12 02:37:47;;;;;;;18.33;11.75;;;11.70;99.90;;;;;;5014171;28;20030;-73
2022/10/12 02:40:13;;;;;;;18.90;11.20;;;11.60;99.90;;;;;;4983606;28;20382;-73
2022/10/12 02:42:44;;;;;;;20.00;12.20;;;11.60;99.90;;;;;;4996744;28;20034;-73
2022/10/12 02:45:12;;;;;;;14.90;11.50;;;11.50;99.90;;;;;;4996665;28;20041;-73
2022/10/12 02:47:39;;;;;;;23.63;12.23;;;11.50;99.90;;;;;;5013957;28;20026;-73
2022/10/12 02:50:08;;;;;;;19.42;10.85;;;11.40;99.90;;;;;;4996322;28;20030;-73
2022/10/12 02:52:33;;;;;;;20.02;11.23;;;11.40;99.90;;;;;;5013937;28;20037;-73
2022/10/12 02:55:00;;;;;;;18.88;12.00;;;11.40;99.90;;;;;;4996397;28;20038;-73
2022/10/12 02:57:26;;;;;;;14.32;10.57;;;11.30;99.90;;;;;;5014004;28;20060;-73
2022/10/12 02:59:51;;;;;;;15.95;10.90;;;11.20;99.90;;;;;;4996166;28;20033;-73
2022/10/12 03:02:17;;;;;;;18.27;11.32;;;11.20;99.90;;;;;;5013624;28;20042;-73
2022/10/12 03:04:42;;;;;;;21.23;12.20;;;11.10;99.90;;;;;;5013720;28;20032;-73
2022/10/12 03:07:08;;;;;;;16.38;11.45;;;11.00;99.90;;;;;;4996162;28;20061;-73
2022/10/12 03:09:34;;;;;;;13.95;10.77;;;11.00;99.90;;;;;;4996124;28;20093;-73
2022/10/12 03:11:59;;;;;;;19.38;12.98;;;11.00;99.90;;;;;;5013400;28;20076;-73
2022/10/12 03:14:26;;;;;;;17.20;11.45;;;10.90;99.90;;;;;;4996145;28;20133;-73
2022/10/12 03:16:53;;;;;;;19.63;12.75;;;10.90;99.90;;;;;;4996080;28;20445;-73
2022/10/12 03:19:18;;;;;;;18.30;12.68;;;10.90;99.90;;;;;;5013018;28;20033;-73
2022/10/12 03:21:44;;;;;;;18.15;12.32;;;10.90;99.90;;;;;;5012716;28;20163;-73
2022/10/12 03:24:10;;;;;;;23.48;12.18;;;10.90;99.90;;;;;;4995146;28;20029;-73
2022/10/12 03:26:36;;;;;;;20.58;13.15;;;10.80;99.90;;;;;;4995253;28;20030;-73
2022/10/12 03:29:02;;;;;;;16.55;12.27;;;10.80;99.90;;;;;;5012626;28;20034;-73
2022/10/12 03:31:27;;;;;;;20.73;12.43;;;10.80;99.90;;;;;;4995045;28;20041;-73
2022/10/12 03:33:53;;;;;;;18.88;12.13;;;10.90;99.90;;;;;;5012321;28;20409;-73
2022/10/12 03:36:18;;;;;;;15.95;11.57;;;10.80;99.90;;;;;;5012298;28;20492;-73
2022/10/12 03:38:44;;;;;;;20.05;12.15;;;10.80;99.90;;;;;;4995065;28;20026;-73
2022/10/12 03:41:10;;;;;;;15.35;10.93;;;10.80;99.90;;;;;;5012460;28;20041;-73
2022/10/12 03:43:36;;;;;;;19.83;12.73;;;10.80;99.90;;;;;;5012575;28;20026;-73
2022/10/12 03:46:01;;;;;;;16.98;10.80;;;10.80;99.90;;;;;;5012783;28;20022;-73
2022/10/12 03:48:27;;;;;;;17.80;12.32;;;10.80;99.90;;;;;;5016164;28;20498;-73
2022/10/12 03:50:52;;;;;;;16.38;11.70;;;10.70;99.90;;;;;;4998735;28;20374;-73
2022/10/12 03:53:19;;;;;;;19.90;11.90;;;10.70;99.90;;;;;;4998208;28;20466;-73
2022/10/12 03:55:45;;;;;;;21.63;12.27;;;10.60;99.90;;;;;;4998094;28;20474;-73
2022/10/12 03:58:11;;;;;;;20.23;12.50;;;10.60;99.90;;;;;;4998032;28;20030;-73
2022/10/12 04:00:37;;;;;;;19.23;11.93;;;10.60;99.90;;;;;;4998049;28;20022;-73
2022/10/12 04:03:03;;;;;;;16.20;11.57;;;10.70;99.90;;;;;;4998207;28;20037;-73
2022/10/12 04:05:30;;;;;;;20.90;11.95;;;10.60;99.90;;;;;;5015277;28;20411;-73
2022/10/12 04:07:55;;;;;;;17.23;11.52;;;10.60;99.90;;;;;;4997786;28;20064;-70
2022/10/12 04:10:21;;;;;;;16.15;11.48;;;10.50;99.90;;;;;;4997921;28;20058;-72
2022/10/12 04:12:47;;;;;;;17.27;12.50;;;10.50;99.90;;;;;;4997817;28;20371;-74
2022/10/12 04:15:13;;;;;;;21.13;13.40;;;10.50;99.90;;;;;;5015338;28;20080;-74
2022/10/12 04:17:39;;;;;;;18.58;12.75;;;10.50;99.90;;;;;;4977597;28;1104351;-74
2022/10/12 04:20:06;;;;;;;14.73;11.82;;;10.50;99.90;;;;;;5016098;28;20437;-74
2022/10/12 04:22:32;;;;;;;19.83;12.23;;;10.60;99.90;;;;;;4998695;28;20064;-74
2022/10/12 04:24:57;;;;;;;20.27;13.25;;;10.60;99.90;;;;;;5016311;28;20022;-75
2022/10/12 04:27:23;;;;;;;20.33;12.18;;;10.60;99.90;;;;;;4998399;28;20026;-74
2022/10/12 04:29:49;;;;;;;18.20;12.13;;;10.60;99.90;;;;;;5016237;28;20041;-74
2022/10/12 04:32:14;;;;;;;20.27;12.55;;;10.60;99.90;;;;;;5016122;28;20029;-74
2022/10/12 04:34:40;;;;;;;21.60;12.55;;;10.70;99.90;;;;;;4998487;28;20032;-74
2022/10/12 04:37:06;;;;;;;14.80;11.55;;;10.70;99.90;;;;;;5016380;28;20462;-74
2022/10/12 04:39:31;;;;;;;20.77;13.75;;;10.70;99.90;;;;;;4998395;28;20022;-73
2022/10/12 04:41:57;;;;;;;21.23;11.30;;;10.70;99.90;;;;;;5015973;28;20040;-73
2022/10/12 04:44:23;;;;;;;16.80;12.10;;;10.70;99.90;;;;;;5015605;28;20060;-73
2022/10/12 04:46:49;;;;;;;15.90;10.85;;;10.60;99.90;;;;;;5015384;28;20034;-74
2022/10/12 04:49:15;;;;;;;17.17;11.73;;;10.60;99.90;;;;;;4998178;28;20458;-74
2022/10/12 04:51:41;;;;;;;19.27;11.10;;;10.60;99.90;;;;;;5015830;28;20036;-73
2022/10/12 04:54:08;;;;;;;16.60;11.30;;;10.50;99.90;;;;;;5015392;28;20025;-73
2022/10/12 04:56:33;;;;;;;18.17;11.20;;;10.50;99.90;;;;;;4998179;28;20367;-73
2022/10/12 04:58:59;;;;;;;21.02;11.82;;;10.50;99.90;;;;;;5015110;28;20065;-74
2022/10/12 05:01:25;;;;;;;18.73;12.55;;;10.40;99.90;;;;;;5015652;28;20026;-74
2022/10/12 05:03:56;;;;;;;17.58;11.73;;;10.30;99.90;;;;;;5015594;28;20030;-73
2022/10/12 05:06:22;;;;;;;17.27;11.60;;;10.30;99.90;;;;;;5015634;28;20026;-74
2022/10/12 05:08:48;;;;;;;20.45;12.13;;;10.20;99.90;;;;;;5015462;28;20024;-74
2022/10/12 13:32:27;;;;;;;6.88;2.78;;;19.40;68.40;;;;;;5354866;23;19920;-72
2022/10/12 13:34:55;;;;;;;5.65;3.25;;;19.20;68.40;;;;;;4989011;28;20193;-72
2022/10/12 13:37:29;;;;;;;10.27;3.20;;;19.00;69.40;;;;;;4995421;28;20065;-72
2022/10/12 13:39:55;;;;;;;11.95;2.75;;;18.80;69.20;;;;;;4994338;28;20370;-72
2022/10/12 13:42:33;;;;;;;7.38;2.55;;;18.70;70.00;;;;;;4993995;28;20057;-72
2022/10/12 13:45:02;;;;;;;5.30;2.90;;;18.70;70.20;;;;;;4978573;28;20074;-72
2022/10/12 13:47:31;;;;;;;7.40;3.00;;;18.70;70.60;;;;;;4956343;28;20031;-72
2022/10/12 13:49:57;;;;;;;5.95;2.80;;;18.80;71.20;;;;;;4955133;29;20455;-71
2022/10/12 13:52:26;;;;;;;6.25;3.40;;;18.80;70.90;;;;;;4955112;29;20125;-72
2022/10/12 13:54:52;;;;;;;;;;;18.70;70.90;;;;;;4957135;28;20020;-72
2022/10/12 13:57:38;;;;;;;6.18;3.40;;;18.70;71.20;;;;;;4956306;29;20358;-72
2022/10/12 14:00:24;;;;;;;9.35;3.53;;;18.60;71.60;;;;;;4956574;28;20093;-72
2022/10/12 14:03:07;;;;;;;4.55;3.25;;;18.50;72.50;;;;;;4954897;28;20035;-72
2022/10/12 14:05:42;;;;;;;7.38;3.70;;;18.60;72.80;;;;;;4956218;29;20351;-72
2022/10/12 14:08:14;;;;;;;9.70;3.75;;;18.60;73.40;;;;;;4956244;28;20059;-72
2022/10/12 14:10:43;;;;;;;8.82;4.65;;;18.60;73.20;;;;;;4955111;29;20115;-72
2022/10/12 14:13:14;;;;;;;11.30;4.03;;;18.50;72.50;;;;;;4956102;28;20027;-72
2022/10/12 14:15:41;;;;;;;12.35;3.90;;;18.50;73.80;;;;;;4956179;28;20067;-72
2022/10/12 14:18:31;;;;;;;17.15;4.20;;;18.50;73.70;;;;;;4956111;28;20071;-72
2022/10/12 14:21:32;;;;;;;5.82;3.35;;;18.40;74.90;;;;;;4955954;29;20035;-72
2022/10/12 14:24:05;;;;;;;8.73;3.33;;;18.40;74.80;;;;;;4954803;29;20070;-72
2022/10/12 14:26:38;;;;;;;7.20;3.55;;;18.10;74.60;;;;;;4956010;28;20106;-72
2022/10/12 14:29:24;;;;;;;11.65;3.78;;;17.90;75.50;;;;;;4954557;28;20027;-73
2022/10/12 14:31:53;;;;;;;8.80;3.58;;;17.90;76.20;;;;;;4955470;28;20027;-73
2022/10/12 14:34:25;;;;;;;7.07;3.92;;;17.80;76.70;;;;;;4955871;28;20047;-72
2022/10/12 14:37:12;;;;;;;13.63;4.88;;;17.90;76.90;;;;;;4955718;29;20110;-73
2022/10/12 14:39:40;;;;;;;14.52;4.32;;;18.00;77.40;;;;;;4955722;29;20023;-73
2022/10/12 14:42:27;;;;;;;9.27;4.27;;;18.00;76.60;;;;;;4955729;29;20035;-73
2022/10/12 14:44:53;;;;;;;11.82;3.75;;;18.00;76.60;;;;;;4955463;29;20487;-74
2022/10/12 14:47:25;;;;;;;9.50;3.92;;;17.90;77.10;;;;;;4938417;29;20119;-73
2022/10/12 14:49:53;;;;;;;8.05;4.32;;;17.80;77.40;;;;;;4938314;29;20186;-72
2022/10/12 14:52:43;;;;;;;10.68;4.32;;;17.80;78.00;;;;;;4938286;29;20066;-75
2022/10/12 14:55:14;;;;;;;10.68;4.03;;;17.70;78.10;;;;;;4938324;29;20086;-72
2022/10/12 14:57:40;;;;;;;8.25;3.90;;;17.70;78.80;;;;;;4955699;29;20096;-72
2022/10/12 15:00:06;;;;;;;8.43;4.28;;;17.70;79.50;;;;;;4938326;29;20035;-72
2022/10/12 15:02:33;;;;;;;12.63;4.53;;;17.80;79.00;;;;;;4938093;29;20035;-72
2022/10/12 15:04:59;;;;;;;9.00;4.95;;;17.90;78.60;;;;;;4955471;29;20104;-70
2022/10/12 15:07:28;;;;;;;7.63;3.80;;;17.80;79.20;;;;;;4937969;29;20032;-73
2022/10/12 15:09:53;;;;;;;14.75;4.40;;;17.70;80.10;;;;;;4938214;29;20031;-73
2022/10/12 15:12:21;;;;;;;8.80;5.25;;;17.50;80.80;;;;;;4938168;29;20062;-73
2022/10/12 15:14:48;;;;;;;10.35;4.60;;;17.40;81.60;;;;;;4938499;29;20027;-75
2022/10/12 15:17:16;;;;;;;8.55;4.35;;;17.30;84.30;;;;;;4938456;29;20408;-74
2022/10/12 15:19:43;;;;;;;8.80;3.83;;;17.00;88.10;;;;;;4955824;29;20102;-86
2022/10/12 15:22:23;;;;;;;10.88;3.72;;;16.80;90.80;;;;;;4955631;29;20082;-83
2022/10/12 15:24:50;;;;;;;11.98;4.32;;;16.50;92.60;;;;;;4939331;29;20051;-79
2022/10/12 15:27:15;;;;;;;10.38;4.85;;;16.20;94.60;;;;;;4938248;29;20027;-79
2022/10/12 15:29:41;;;;;;;12.48;4.80;;;16.00;96.70;;;;;;4938182;29;20035;-82
2022/10/12 15:32:10;;;;;;;11.48;4.53;;;15.90;98.30;;;;;;4938705;29;20039;-78
2022/10/12 15:34:36;;;;;;;10.25;4.82;;;15.70;99.90;;;;;;4955740;29;20471;-77
2022/10/12 15:37:03;;;;;;;14.02;5.00;;;15.60;99.90;;;;;;4937626;29;20036;-81
2022/10/12 15:39:29;;;;;;;18.80;5.15;;;15.40;99.90;;;;;;4938846;29;20028;-73
2022/10/12 15:41:55;;;;;;;17.48;6.18;;;15.30;99.90;;;;;;4938465;29;20455;-73
2022/10/12 15:44:21;;;;;;;16.13;5.63;;;15.20;99.90;;;;;;4959125;29;20035;-74
2022/10/12 15:46:49;;;;;;;16.73;6.32;;;15.10;99.90;;;;;;4941422;29;20032;-74
2022/10/12 15:49:15;;;;;;;25.55;9.32;;;15.00;99.90;;;;;;4941455;29;20028;-74
2022/10/12 15:51:46;;;;;;;20.58;11.95;;;14.90;99.90;;;;;;4958698;29;20393;-74
2022/10/12 15:54:12;;;;;;;22.95;8.73;;;14.90;99.90;;;;;;4958391;29;20031;-74
2022/10/12 15:56:38;;;;;;;17.05;10.85;;;14.80;99.90;;;;;;4941914;29;20436;-74
2022/10/12 15:59:05;;;;;;;17.02;8.48;;;14.80;99.90;;;;;;4958575;29;20142;-74
2022/10/12 16:01:33;;;;;;;14.88;6.50;;;14.70;99.90;;;;;;4957343;29;20034;-74
2022/10/12 16:03:59;;;;;;;16.88;6.05;;;14.70;99.90;;;;;;4958435;29;20386;-74
2022/10/12 16:06:25;;;;;;;12.10;6.60;;;14.70;99.90;;;;;;4941355;29;20130;-73
2022/10/12 16:08:51;;;;;;;13.02;6.40;;;14.60;99.90;;;;;;4957108;29;20122;-74
2022/10/12 16:11:17;;;;;;;13.55;5.90;;;14.60;99.90;;;;;;4958169;29;20027;-74
2022/10/12 16:13:44;;;;;;;14.30;5.78;;;14.60;99.90;;;;;;4958466;29;20074;-74
2022/10/12 16:16:11;;;;;;;11.95;5.95;;;14.50;99.90;;;;;;4940973;29;20038;-73
2022/10/12 16:18:37;;;;;;;18.92;5.70;;;14.50;99.90;;;;;;4940944;29;20479;-73
2022/10/12 16:21:02;;;;;;;8.52;5.50;;;14.50;99.90;;;;;;4940898;29;20031;-73
2022/10/12 16:23:31;;;;;;;18.25;8.40;;;14.50;99.90;;;;;;4957975;29;20031;-73
2022/10/12 16:25:57;;;;;;;11.97;5.53;;;14.50;99.90;;;;;;4940651;29;20118;-74
2022/10/12 16:28:24;;;;;;;15.43;6.38;;;14.40;99.90;;;;;;4958124;29;20034;-88
2022/10/12 16:30:50;;;;;;;13.02;5.68;;;14.40;99.90;;;;;;4960049;29;20023;-87
2022/10/12 16:33:17;;;;;;;14.82;7.65;;;14.40;99.90;;;;;;4959057;28;20533;-87
2022/10/12 16:35:43;;;;;;;17.58;8.55;;;14.30;99.90;;;;;;4958735;29;20114;-78
2022/10/12 16:38:09;;;;;;;17.75;6.68;;;14.20;99.90;;;;;;4940846;29;20059;-74
2022/10/12 16:40:37;;;;;;;15.38;6.25;;;14.20;99.90;;;;;;4940815;29;20059;-74
2022/10/12 16:43:03;;;;;;;21.65;7.43;;;14.10;99.90;;;;;;4957751;29;20039;-65
2022/10/12 16:45:28;;;;;;;19.02;7.75;;;14.10;99.90;;;;;;4957518;28;20370;-65
2022/10/12 16:47:54;;;;;;;50.38;15.55;;;14.00;99.90;;;;;;4957973;29;20024;-65
2022/10/12 16:50:22;;;;;;;14.80;6.35;;;14.00;99.90;;;;;;4957628;29;20031;-65
2022/10/12 16:52:48;;;;;;;120.68;18.95;;;13.90;99.90;;;;;;4940309;29;20407;-66
2022/10/12 16:55:14;;;;;;;33.35;8.95;;;13.90;99.90;;;;;;4956195;28;20078;-65
2022/10/12 16:57:40;;;;;;;21.02;7.88;;;13.80;99.90;;;;;;4958505;29;20070;-66
2022/10/12 17:00:09;;;;;;;21.15;7.25;;;13.90;99.90;;;;;;4957528;29;20031;-66
2022/10/12 17:02:35;;;;;;;16.85;7.22;;;13.90;99.90;;;;;;4957398;29;20035;-65
2022/10/12 17:05:01;;;;;;;13.60;6.57;;;13.90;99.90;;;;;;4957387;29;20035;-65
2022/10/12 17:07:27;;;;;;;17.33;6.93;;;13.80;99.90;;;;;;4957299;29;20058;-65
2022/10/12 17:09:54;;;;;;;14.18;6.85;;;13.60;99.90;;;;;;4956996;29;20462;-66
2022/10/12 17:12:21;;;;;;;15.57;6.88;;;13.60;99.90;;;;;;4957598;29;20031;-66
2022/10/12 17:14:52;;;;;;;12.45;6.45;;;13.50;99.90;;;;;;4957165;29;20031;-66
2022/10/12 17:17:18;;;;;;;14.85;6.80;;;13.50;99.90;;;;;;4956930;29;20028;-66
2022/10/12 17:19:44;;;;;;;21.50;7.65;;;13.40;99.90;;;;;;4939937;29;20423;-65
2022/10/12 17:22:11;;;;;;;15.25;6.72;;;13.30;99.90;;;;;;4956696;29;20427;-65
2022/10/12 17:24:43;;;;;;;17.05;7.05;;;13.20;99.90;;;;;;4957035;29;20054;-65
2022/10/12 17:27:11;;;;;;;16.70;7.30;;;13.20;99.90;;;;;;4957199;29;20058;-71
2022/10/12 17:29:39;;;;;;;18.58;7.57;;;13.10;99.90;;;;;;4957042;29;20034;-71
2022/10/12 17:32:05;;;;;;;15.35;6.38;;;13.10;99.90;;;;;;4956827;29;20031;-71
2022/10/12 17:34:34;;;;;;;15.13;7.22;;;13.00;99.90;;;;;;4949762;28;20051;-71
2022/10/12 17:37:01;;;;;;;14.57;6.78;;;13.00;99.90;;;;;;4956813;28;20344;-71
2022/10/12 17:39:29;;;;;;;18.13;8.07;;;13.00;99.90;;;;;;4939414;29;20077;-71
2022/10/12 17:41:55;;;;;;;15.93;7.40;;;13.00;99.90;;;;;;4956529;28;20106;-71
2022/10/12 17:44:21;;;;;;;11.23;7.18;;;12.90;99.90;;;;;;4956683;28;20356;-70
2022/10/12 17:46:48;;;;;;;19.67;8.38;;;12.80;99.90;;;;;;4956545;28;20116;-71
2022/10/12 17:49:17;;;;;;;14.98;7.13;;;12.70;99.90;;;;;;4957043;29;20370;-71
2022/10/12 17:51:46;;;;;;;17.58;7.63;;;12.70;99.90;;;;;;4956523;28;20057;-70
2022/10/12 17:54:12;;;;;;;12.80;6.55;;;12.60;99.90;;;;;;4955161;28;20058;-69
2022/10/12 17:56:37;;;;;;;17.27;8.27;;;12.50;99.90;;;;;;4956363;28;20458;-71
2022/10/12 17:59:04;;;;;;;18.98;8.18;;;12.40;99.90;;;;;;4956454;28;20027;-70
2022/10/12 18:01:31;;;;;;;18.83;8.05;;;12.30;99.90;;;;;;4956136;28;20032;-70
2022/10/12 18:04:02;;;;;;;16.13;8.40;;;12.20;99.90;;;;;;4954296;29;20090;-71
2022/10/12 18:06:29;;;;;;;14.77;7.85;;;12.10;99.90;;;;;;4954799;28;20039;-71
2022/10/12 18:08:56;;;;;;;15.45;7.57;;;12.00;99.90;;;;;;4956107;28;20055;-71
2022/10/12 18:11:23;;;;;;;14.35;7.70;;;12.00;99.90;;;;;;4955098;28;20126;-71
2022/10/12 18:13:51;;;;;;;12.70;7.68;;;11.90;99.90;;;;;;4956355;28;20063;-58
2022/10/12 18:16:20;;;;;;;17.33;7.13;;;11.90;99.90;;;;;;4956520;28;20039;-57
2022/10/12 18:18:51;;;;;;;18.17;7.63;;;11.80;99.90;;;;;;4956193;28;20364;-70
2022/10/12 18:21:19;;;;;;;18.52;7.00;;;11.70;99.90;;;;;;4939563;29;20046;-71
2022/10/12 18:23:46;;;;;;;12.25;7.13;;;11.70;99.90;;;;;;4956123;28;20035;-71
2022/10/12 18:26:12;;;;;;;14.07;7.45;;;11.60;99.90;;;;;;4954781;28;20031;-71
2022/10/12 18:28:40;;;;;;;13.93;7.70;;;11.60;99.90;;;;;;4956253;28;20028;-71
2022/10/12 18:31:07;;;;;;;18.17;7.78;;;11.60;99.90;;;;;;4954847;29;20095;-71
2022/10/12 18:33:33;;;;;;;19.23;8.35;;;11.50;99.90;;;;;;4956289;28;20051;-73
2022/10/12 18:36:06;;;;;;;13.98;7.78;;;11.40;99.90;;;;;;4956968;29;20032;-71
2022/10/12 18:38:33;;;;;;;22.02;8.52;;;11.40;99.90;;;;;;4923181;29;20467;-72
2022/10/12 18:41:07;;;;;;;14.43;8.10;;;11.30;99.90;;;;;;4938746;29;20054;-72
2022/10/12 18:43:34;;;;;;;19.40;8.77;;;11.30;99.90;;;;;;4956202;29;20027;-72
2022/10/12 18:46:08;;;;;;;26.67;10.07;;;11.20;99.90;;;;;;4923443;29;20028;-72
2022/10/12 18:48:34;;;;;;;21.48;9.73;;;11.20;99.90;;;;;;4957013;29;20027;-72
2022/10/12 18:51:14;;;;;;;17.00;9.55;;;11.20;99.90;;;;;;4956284;29;20023;-71
2022/10/12 18:53:40;;;;;;;18.33;9.88;;;11.10;99.90;;;;;;4939109;29;20393;-71
2022/10/12 18:56:06;;;;;;;14.35;9.23;;;11.10;99.90;;;;;;4955962;29;20038;-72
2022/10/12 18:58:32;;;;;;;13.55;8.85;;;11.10;99.90;;;;;;4938844;29;20033;-72
2022/10/12 19:00:58;;;;;;;19.15;8.70;;;11.10;99.90;;;;;;4955803;29;20110;-72
2022/10/12 19:03:25;;;;;;;17.27;9.43;;;11.10;99.90;;;;;;4955921;29;20040;-72
2022/10/12 19:05:51;;;;;;;13.18;8.40;;;11.10;99.90;;;;;;4956148;29;20023;-73
2022/10/12 19:08:17;;;;;;;16.75;10.68;;;11.10;99.90;;;;;;4955965;29;20093;-74
2022/10/12 19:10:43;;;;;;;17.48;8.38;;;11.10;99.90;;;;;;4955633;29;20082;-73
2022/10/12 19:13:09;;;;;;;17.98;9.18;;;11.10;99.90;;;;;;4955773;29;20031;-73
2022/10/12 19:15:36;;;;;;;18.27;9.85;;;11.10;99.90;;;;;;4938862;29;20426;-73
2022/10/12 19:18:02;;;;;;;15.55;8.82;;;11.00;99.90;;;;;;4958268;28;20038;-72
2022/10/12 19:20:29;;;;;;;20.27;9.95;;;11.00;99.90;;;;;;4960382;29;20482;-73
2022/10/12 19:22:55;;;;;;;17.02;10.15;;;11.00;99.90;;;;;;4961237;29;20031;-75
2022/10/12 19:25:21;;;;;;;18.02;10.07;;;11.00;99.90;;;;;;4961254;29;20078;-73
2022/10/12 19:27:47;;;;;;;16.17;9.32;;;11.00;99.90;;;;;;4960195;29;20455;-73
2022/10/12 19:30:13;;;;;;;17.10;9.35;;;11.00;99.90;;;;;;4960157;29;20415;-72
2022/10/12 19:32:40;;;;;;;13.20;8.82;;;11.00;99.90;;;;;;4959941;29;20109;-72
2022/10/12 19:35:06;;;;;;;17.63;10.23;;;11.00;99.90;;;;;;4957683;29;20133;-73
2022/10/12 19:37:32;;;;;;;18.67;10.68;;;10.90;99.90;;;;;;4959969;28;20366;-73
2022/10/12 19:39:57;;;;;;;25.90;16.05;;;10.90;99.90;;;;;;4959301;29;20118;-73
2022/10/12 19:42:23;;;;;;;18.70;9.80;;;10.80;99.90;;;;;;4959004;29;20031;-72
2022/10/12 19:44:49;;;;;;;13.98;9.75;;;10.70;99.90;;;;;;4959103;28;20121;-73
2022/10/12 19:47:15;;;;;;;23.30;9.77;;;10.70;99.90;;;;;;4961004;28;20027;-72
2022/10/12 19:49:43;;;;;;;19.08;9.55;;;10.70;99.90;;;;;;4960697;28;20086;-72
2022/10/12 19:52:09;;;;;;;17.75;10.38;;;10.60;99.90;;;;;;4959315;29;20035;-73
2022/10/12 19:54:35;;;;;;;21.70;9.55;;;10.60;99.90;;;;;;4959025;29;20078;-72
2022/10/12 19:57:01;;;;;;;33.33;10.57;;;10.50;99.90;;;;;;4958429;28;20394;-72
2022/10/12 19:59:27;;;;;;;22.00;9.52;;;10.40;99.90;;;;;;4959555;29;20027;-73
2022/10/12 20:01:54;;;;;;;18.95;10.48;;;10.30;99.90;;;;;;4960387;29;20054;-73
2022/10/12 20:04:20;;;;;;;22.50;10.18;;;10.30;99.90;;;;;;4961119;29;20060;-73
2022/10/12 20:06:46;;;;;;;16.75;10.15;;;10.20;99.90;;;;;;4959056;29;20073;-72
2022/10/12 20:09:12;;;;;;;22.40;10.93;;;10.20;99.90;;;;;;4960856;29;20110;-72
2022/10/12 20:11:38;;;;;;;16.05;10.75;;;10.20;99.90;;;;;;4961660;28;20027;-71
2022/10/12 20:14:04;;;;;;;19.42;10.15;;;10.20;99.90;;;;;;4960662;28;20027;-71
2022/10/12 20:16:30;;;;;;;23.60;9.98;;;10.10;99.90;;;;;;4960998;28;20100;-72
2022/10/12 20:18:56;;;;;;;16.70;10.63;;;10.10;99.90;;;;;;4959028;29;20051;-72
2022/10/12 20:21:23;;;;;;;19.45;11.90;;;10.10;99.90;;;;;;4960757;28;20031;-72
2022/10/12 20:24:26;;;;;;;18.88;10.18;;;10.00;99.90;;;;;;4961188;28;20118;-72
2022/10/12 20:26:52;;;;;;;21.30;11.75;;;10.00;99.90;;;;;;4961775;29;20035;-72
2022/10/12 20:29:17;;;;;;;21.05;10.50;;;9.90;99.90;;;;;;4959409;28;20086;-72
2022/10/12 20:31:43;;;;;;;20.73;10.55;;;9.90;99.90;;;;;;4960390;29;20023;-71
2022/10/12 20:34:09;;;;;;;20.98;10.43;;;9.90;99.90;;;;;;4959715;29;20448;-72
2022/10/12 20:37:30;;;;;;;18.83;11.25;;;9.80;99.90;;;;;;4961248;28;20038;-71
2022/10/12 20:39:56;;;;;;;23.67;11.52;;;9.80;99.90;;;;;;4961338;28;20035;-74
2022/10/12 20:42:21;;;;;;;19.85;12.07;;;9.80;99.90;;;;;;4960135;29;20035;-72
2022/10/12 20:44:51;;;;;;;19.17;12.05;;;9.70;99.90;;;;;;4960481;28;20375;-71
2022/10/12 20:47:17;;;;;;;17.25;12.07;;;9.70;99.90;;;;;;4960139;29;20464;-72
2022/10/12 20:49:43;;;;;;;24.95;11.98;;;9.60;99.90;;;;;;4960283;28;20035;-71
2022/10/12 20:52:41;;;;;;;20.38;11.88;;;9.60;99.90;;;;;;4960760;28;20031;-73
2022/10/12 20:58:36;;;;;;;23.85;12.13;;;9.60;99.90;;;;;;4960922;29;20204;-72
2022/10/12 21:04:48;;;;;;;21.52;11.40;;;9.50;99.90;;;;;;4960592;29;20074;-72
2022/10/12 21:10:47;;;;;;;23.50;11.68;;;9.40;99.90;;;;;;4960014;29;20022;-72
2022/10/12 21:16:54;;;;;;;22.08;11.85;;;9.40;99.90;;;;;;4960111;29;20034;-72